Mansfield, WA (98830)

7:49 PM PDT on September 20, 2014 (GMT -0700)
The Highlands | Change Station
CLOSE
Current Station
Personal Weather Station
Location: Chelan, WA
Elevation: 1610 ft
Nearby Weather Stations

Elev 1610 ft 47.86 °N, 120.04 °W | Updated 3 minutes ago

Clear
Clear
75.8 °F
Feels Like 78 °F
N
1.0
Wind Variable Wind from East
Gusts 2.0 mph

Today
High -- | Low -- °F
--% Chance of Precip.
Yesterday
High -- | Low -- °F
Precip. -- in
6:42 AM 7:00 PM
Waning Crescent, 9% visible
Pressure 29.98 in
Visibility 10.0 miles
Clouds Clear
Heat Index 78 °F
Dew Point 48 °F
Humidity 37%
Rainfall 0.00 in
Snow Depth 0 in , 0 in , 0 in
UV 0 out of 12
Pollen 3.20 out of 12
Air Quality Not available.
Flu Activity Not available.
METAR KEPH 210153Z AUTO 04007KT 10SM CLR 27/06 A2999 RMK AO2 SLP151 T02720056

More Conditions Fewer Conditions

Pressure 29.98 in
Visibility 10.0 miles
Clouds Clear
Heat Index 78 °F
Dew Point 48 °F
Humidity 37%
Rainfall 0.00 in
Snow Depth 0 in , 0 in , 0 in
UV 0 out of 12
Pollen 3.20 out of 12
Air Quality Not available.
Flu Activity Not available.
METAR KEPH 210153Z AUTO 04007KT 10SM CLR 27/06 A2999 RMK AO2 SLP151 T02720056

More Conditions Fewer Conditions

10-Day Weather Forecast

Almanac

Astronomy

Sep. 20, 2014 Rise Set
Actual Time 6:42 AM PDT 7:00 PM PDT
Civil Twilight 6:11 AM PDT 7:31 PM PDT
Nautical Twilight 5:35 AM PDT 8:07 PM PDT
Astronomical Twilight 4:57 AM PDT 8:45 PM PDT
Moon 3:14 AM PDT (9/20) 5:15 PM PDT (9/20)
Length of Visible Light 13h 19m
Length of Day
12h 17m
Tomorrow will be 3m 25s shorter.
Waning Crescent, 9% of the Moon is Illuminated
Today
Waning Crescent
Sep 24
New
Oct 1
First Quarter
Oct 8
Full
Oct 15
Last Quarter

Today's Extremes

State Highs State Lows

Community

WunderPhotos

Upload Photos

1,755,066 photos uploaded!

WunderBlogs® & News

Nearby

Snow Depth

Station Depth Elevation
Rainy Pass 0 in 4780 ft
Stevens Pass 0 in 4070 ft
Blewett Pass 0 in 4270 ft
Spruce Springs 0 in 5700 ft
Thunder Basin 0 in 4200 ft

Earthquake Activity

City Distance Mag. Time & Date
No recent earthquake activity has been reported nearby.
Minimum magnitude displayed is 2.5.

Coastal Water Temperatures

Place Temperature
No Stations Reporting

Nearby Weather Stations